Temple, Maine
Current Conditions -  °F | °C
As of 4:35 AM on Thursday 23 Oct 2014 (Local Time) from KWVL Reporting Station
Overcast Overcast  
Wind Chill: 37°   Ceiling: 600
Heat Index: 45°   Visibility: 5mi
Dew Point: 39°   Wind: 18mph
Humidity: 81%   Direction: 30°NNE
Pressure: 29.93"   Gusts: 26mph
Location:  44.68°N, 70.23°W
Report Text: KWVL 230835Z 03016G23KT 5SM OVC006 07/04 A2993 RMK AO1 P0002
Loading
Personal Weather Stations






























Interactive Weather Map
Tropical Storm Tracking
New forecast layout! Learn more

10-Day Weather Forecast

Advertisements
Track Severe Weather on mobile